x

South Brooks (46132) Wave Buoy

10:00pm - Sat 21st Oct 2017 All times are PDT. -7 hours from GMT.

  • Sig Wave height 10.5ft
  • Peak Period 10s
  • Wind
    16mph, 22mph gusts
  • Sea Temp 52°f
  • Air Temp 55°f
  • Sea Pressure 995.7mb
  • South Brooks
  • South Brooks

More Historic Weather Station data

Upgrade to MSW Pro to gain access to the past 30 days of data for over 8000 Wavebouys and Weather Stations around the globe.

Join

Comparision Forecast

View Surf forecast
   
Sat 10/21 10:00pm 10.5ft 10s 16 22 mph 995.7mb 52f 55f
9:00pm 10ft 9s 9 11 mph 995.7mb 52f 55f
8:00pm 10.5ft 10s 13 18 mph 995.2mb 53f 55f
7:00pm 11ft 9s 18 22 mph 994.3mb 53f 55f
6:00pm 11ft 8s 20 25 mph 993.4mb 54f 56f
5:00pm 11.5ft 9s 25 29 mph 993.1mb 53f 55f
4:00pm 11.5ft 8s 25 31 mph 993mb 53f 54f
3:00pm 12.5ft 8s 22 27 mph 993.2mb 53f 54f
2:00pm 13ft 8s 29 36 mph 994mb 52f 52f
1:00pm 13ft 8s 29 38 mph 995mb 51f 51f
12:00pm 13ft 8s 29 38 mph 996.1mb 50f 51f
11:00am 13.5ft 8s 34 40 mph 996.4mb 51f 51f
10:00am 15.5ft 9s 36 45 mph 996.8mb 51f 49f
9:00am 15ft 8s 40 49 mph 996.5mb 51f 50f
8:00am 14ft 8s 36 47 mph 996.9mb 51f 50f
7:00am 13ft 7s 38 45 mph 997.4mb 51f 50f
6:00am 12.5ft 8s 36 43 mph 998.1mb 51f 49f
5:00am 12.5ft 7s 34 43 mph 999.3mb 51f 50f
4:00am 11.5ft 13s 31 43 mph 1000.3mb 51f 50f
3:00am 11ft 14s 31 45 mph 1001.4mb 51f 50f
2:00am 11ft 13s 25 31 mph 1002.8mb 51f 50f
1:00am 10.5ft 13s 25 31 mph 1003.5mb 51f 51f
12:00am 11ft 14s 27 34 mph 1004mb 51f 49f
Fri 10/20 11:00pm  -   -  22
mph
- - -
10:00pm 13ft 14s 20 25 mph 1005.9mb 51f 52f
9:00pm 12.5ft 14s 18 22 mph 1006.5mb 51f 51f
8:00pm 12ft 13s 13 18 mph 1007.1mb 51f 51f
7:00pm 12ft 15s 11 16 mph 1007.6mb 51f 50f
6:00pm 12.5ft 15s 9 13 mph 1007.5mb 52f 51f
5:00pm 11.5ft 16s 7 9 mph 1007.3mb 52f 50f
4:00pm 13ft 14s 9 16 mph 1007.2mb 52f 49f
3:00pm 13ft 13s 9 13 mph 1006.9mb 52f 51f
2:00pm 13ft 14s 2 4 mph 1006.7mb 52f 52f
1:00pm 13ft 14s 7 9 mph 1006.6mb 52f 50f
12:00pm 14ft 15s 9 13 mph 1005.9mb 51f 51f
11:00am 15ft 14s 7 11 mph 1005.3mb 51f 50f
10:00am 16.5ft 14s 9 13 mph 1004.4mb 52f 50f
9:00am 18.5ft 14s 13 22 mph 1003.6mb 52f 51f
8:00am 19.5ft 14s 9 16 mph 1002.9mb 52f 49f
7:00am 16.5ft 14s 16 20 mph 1002mb 52f 50f
6:00am 17.5ft 14s 18 22 mph 1001.1mb 52f 50f
5:00am 15ft 14s 20 27 mph 1000.2mb 52f 48f
4:00am 16.5ft 16s 11 16 mph 999.2mb 52f 49f
3:00am 16.5ft 17s 16 27 mph 998.5mb 52f 50f
2:00am 16.5ft 16s 11 16 mph 997.9mb 52f 51f
1:00am 15ft 17s 16 22 mph 997.4mb 52f 51f
12:00am 15.5ft 16s 9 13 mph 997.3mb 52f 51f
Thu 10/19 11:00pm 17.5ft 14s 16 22 mph 996.9mb 52f 51f
10:00pm 16.5ft 17s 16 20 mph 996.4mb 52f 51f
9:00pm 19.5ft 17s 9 16 mph 995.9mb 52f 54f
8:00pm 20ft 15s 11 16 mph 995.7mb 53f 54f
7:00pm 21.5ft 17s 13 20 mph 995.2mb 54f 53f
6:00pm 21.5ft 17s 13 18 mph 994.8mb 54f 54f
5:00pm 21.5ft 16s 13 16 mph 994.2mb 53f 54f
4:00pm 25ft 14s 11 16 mph 994mb 53f 55f
3:00pm 24.5ft 15s 13 16 mph 993.8mb 52f 54f
2:00pm 22.5ft 16s 18 22 mph 993.5mb 52f 53f
1:00pm 25ft 16s 18 22 mph 993.5mb 52f 54f
12:00pm 20.5ft 15s 16 20 mph 993.4mb 52f 54f
11:00am 22ft 15s 16 20 mph 992.9mb 52f 53f
10:00am 21.5ft 14s 18 22 mph 992.6mb 52f 53f
9:00am 20.5ft 14s 18 25 mph 992.2mb 52f 54f
8:00am 23ft 15s 18 22 mph 992.3mb 52f 54f
7:00am 20.5ft 14s 16 20 mph 992.4mb 53f 55f
6:00am 21.5ft 14s 16 22 mph 992mb 53f 55f
5:00am 20.5ft 14s 18 25 mph 992mb 54f 55f
4:00am 19ft 12s 18 22 mph 992mb 54f 55f
3:00am 19.5ft 11s 18 22 mph 991.9mb 53f 55f
2:00am 18ft 12s 20 25 mph 991.6mb 53f 54f
1:00am 18.5ft 12s 22 29 mph 991.2mb 53f 55f
12:00am 16ft 10s 22 27 mph 990.8mb 52f 55f
Wed 10/18 11:00pm 16.5ft 11s 20 27 mph 990.7mb 52f 53f
10:00pm 15.5ft 10s 27 36 mph 990.8mb 52f 53f
9:00pm 14ft 10s 20 25 mph 991.4mb 52f 53f
8:00pm 13.5ft 9s 22 29 mph 991.4mb 52f 55f
7:00pm 14ft 10s 22 27 mph 991.5mb 52f 55f
6:00pm 13.5ft 10s 22 27 mph 991.4mb 52f 55f
5:00pm 14ft 10s 18 22 mph 991.7mb 52f 55f
4:00pm 13ft 10s 18 22 mph 992.1mb 53f 55f
3:00pm 14.5ft 10s 16 20 mph 992.2mb 53f 54f
2:00pm 14.5ft 10s 18 22 mph 992.4mb 53f 55f
1:00pm 15.5ft 10s 18 29 mph 992.5mb 53f 55f
12:00pm 15.5ft 10s 16 20 mph 992.9mb 52f 55f
11:00am 18.5ft 10s 16 22 mph 993.1mb 52f 55f
10:00am 18.5ft 10s 16 22 mph 993.4mb 52f 55f
9:00am 18.5ft 10s 16 22 mph 994.1mb 52f 54f
8:00am 19.5ft 9s 22 40 mph 994.7mb 51f 52f
7:00am 17.5ft 8s 27 34 mph 995.4mb 51f 55f